Time;durP1;ratioP1;P1;durP2;ratioP2;P2;SDS_P1;SDS_P2;PMS_P1;PMS_P2;Temp;Humidity;BMP_temperature;BMP_pressure;BME280_temperature;BME280_humidity;BME280_pressure;Samples;Min_cycle;Max_cycle;Signal;HPM_P1;HPM_P2
2021/10/26 00:01:11;;;;;;;1.98;0.63;;;6.00;99.90;;;;;;5083920;28;20032;-67
2021/10/26 00:03:36;;;;;;;0.60;0.28;;;6.00;99.90;;;;;;5081858;28;20032;-70
2021/10/26 00:06:02;;;;;;;0.52;0.50;;;6.00;99.90;;;;;;5080560;28;20673;-70
2021/10/26 00:08:28;;;;;;;0.50;0.50;;;6.00;99.90;;;;;;5081723;28;20466;-70
2021/10/26 00:10:53;;;;;;;1.17;0.82;;;5.90;99.90;;;;;;5085237;28;20119;-71
2021/10/26 00:13:18;;;;;;;0.10;0.10;;;6.00;99.90;;;;;;5085890;28;20032;-70
2021/10/26 00:15:45;;;;;;;0.30;0.30;;;5.90;99.90;;;;;;5079939;28;20541;-71
2021/10/26 00:18:11;;;;;;;1.35;1.25;;;5.80;99.90;;;;;;5083477;28;20119;-70
2021/10/26 00:20:36;;;;;;;3.05;1.50;;;5.80;99.90;;;;;;5086081;28;20111;-71
2021/10/26 00:23:02;;;;;;;0.40;0.40;;;5.80;99.90;;;;;;5086280;28;20100;-70
2021/10/26 00:25:28;;;;;;;2.92;1.55;;;5.80;99.90;;;;;;5086712;28;20063;-70
2021/10/26 00:27:53;;;;;;;1.73;1.38;;;5.80;99.90;;;;;;5075372;28;20646;-70
2021/10/26 00:30:19;;;;;;;1.77;1.17;;;5.80;99.90;;;;;;5085397;28;20359;-70
2021/10/26 00:32:45;;;;;;;1.08;1.00;;;5.90;99.90;;;;;;5085999;28;20036;-71
2021/10/26 00:35:11;;;;;;;0.15;0.15;;;5.80;99.90;;;;;;5084705;28;20032;-70
2021/10/26 00:37:37;;;;;;;1.00;0.95;;;5.90;99.90;;;;;;5083559;28;20032;-71
2021/10/26 00:40:07;;;;;;;0.47;0.47;;;6.00;99.90;;;;;;5081920;28;20028;-70
2021/10/26 00:42:32;;;;;;;1.83;1.38;;;6.10;99.90;;;;;;5071979;28;20028;-70
2021/10/26 00:44:58;;;;;;;0.65;0.65;;;6.20;99.90;;;;;;5083115;28;20078;-70
2021/10/26 00:47:23;;;;;;;1.70;0.82;;;6.20;99.90;;;;;;5087248;28;20020;-71
2021/10/26 00:49:49;;;;;;;3.35;1.95;;;6.30;99.90;;;;;;5079341;28;20490;-70
2021/10/26 00:52:14;;;;;;;1.35;0.80;;;6.40;99.90;;;;;;5089687;28;20028;-71
2021/10/26 00:54:40;;;;;;;5.50;0.65;;;6.50;99.90;;;;;;5091506;28;20028;-71
2021/10/26 00:57:06;;;;;;;2.83;1.48;;;6.60;99.90;;;;;;5074511;28;20034;-71
2021/10/26 00:59:32;;;;;;;0.68;0.68;;;6.70;99.90;;;;;;5084052;28;20043;-71
2021/10/26 01:01:57;;;;;;;1.65;0.90;;;6.70;99.90;;;;;;5089351;28;20115;-71
2021/10/26 01:04:23;;;;;;;4.47;0.85;;;6.80;99.90;;;;;;5085793;28;20368;-70
2021/10/26 01:06:48;;;;;;;0.52;0.45;;;6.80;99.90;;;;;;5081755;28;20019;-70
2021/10/26 01:09:15;;;;;;;1.40;0.98;;;6.90;99.90;;;;;;5085281;28;20434;-71
2021/10/26 01:11:42;;;;;;;0.85;0.85;;;6.90;99.90;;;;;;5079707;28;20023;-70
2021/10/26 01:14:08;;;;;;;0.80;0.80;;;7.00;99.90;;;;;;5089420;28;20267;-70
2021/10/26 01:16:34;;;;;;;1.45;1.35;;;7.00;99.90;;;;;;5091102;28;20086;-71
2021/10/26 01:18:59;;;;;;;1.38;1.27;;;7.10;99.90;;;;;;5078375;28;20429;-71
2021/10/26 01:21:25;;;;;;;1.58;1.48;;;7.20;99.90;;;;;;5082389;28;20028;-70
2021/10/26 01:23:50;;;;;;;3.30;2.15;;;7.20;99.90;;;;;;5090226;28;20028;-70
2021/10/26 01:26:16;;;;;;;0.55;0.55;;;7.20;99.90;;;;;;5087500;28;20467;-71
2021/10/26 01:28:41;;;;;;;0.45;0.45;;;7.30;99.90;;;;;;5089712;28;20027;-70
2021/10/26 01:31:07;;;;;;;1.85;0.40;;;7.30;99.90;;;;;;5084553;28;20028;-70
2021/10/26 01:33:33;;;;;;;1.05;1.05;;;7.30;99.90;;;;;;5077442;28;20433;-70
2021/10/26 01:35:59;;;;;;;3.70;2.63;;;7.40;99.90;;;;;;5087564;28;20692;-70
2021/10/26 01:38:25;;;;;;;3.08;2.33;;;7.40;99.90;;;;;;5085427;28;20024;-70
2021/10/26 01:40:51;;;;;;;2.55;2.22;;;7.40;99.90;;;;;;5087575;28;20028;-71
2021/10/26 01:43:17;;;;;;;0.30;0.30;;;7.50;99.90;;;;;;5086655;28;20514;-71
2021/10/26 01:45:43;;;;;;;0.80;0.80;;;7.50;99.90;;;;;;5088844;28;20034;-70
2021/10/26 01:48:08;;;;;;;1.13;0.65;;;7.60;99.90;;;;;;5089525;28;20421;-70
2021/10/26 01:50:34;;;;;;;0.60;0.55;;;7.60;99.90;;;;;;5086424;28;20039;-70
2021/10/26 01:53:00;;;;;;;2.15;1.42;;;7.70;99.90;;;;;;5086027;28;20073;-70
2021/10/26 01:55:25;;;;;;;2.65;1.05;;;7.80;99.90;;;;;;5088289;28;20016;-70
2021/10/26 01:57:52;;;;;;;1.25;0.77;;;7.80;99.90;;;;;;5082422;28;20033;-70
2021/10/26 02:00:19;;;;;;;0.30;0.30;;;7.80;99.90;;;;;;5083628;28;20028;-71
2021/10/26 02:02:46;;;;;;;1.60;0.75;;;7.90;99.90;;;;;;5078120;28;20032;-71
2021/10/26 02:05:12;;;;;;;0.88;0.82;;;7.90;99.90;;;;;;5084561;28;20031;-70
2021/10/26 02:07:38;;;;;;;0.30;0.30;;;7.90;99.90;;;;;;5087538;28;20020;-70
2021/10/26 02:10:04;;;;;;;0.40;0.40;;;7.90;99.90;;;;;;5075219;28;20394;-71
2021/10/26 02:12:30;;;;;;;3.47;1.13;;;7.90;99.90;;;;;;5085246;28;20036;-70
2021/10/26 02:14:55;;;;;;;0.82;0.75;;;7.80;99.90;;;;;;5085929;28;20555;-71
2021/10/26 02:17:21;;;;;;;3.35;1.30;;;7.70;99.90;;;;;;5075776;28;20036;-71
2021/10/26 02:19:46;;;;;;;0.63;0.63;;;7.70;99.90;;;;;;5085172;28;20028;-70
2021/10/26 02:22:12;;;;;;;0.32;0.32;;;7.50;99.90;;;;;;5086768;28;20039;-70
2021/10/26 02:24:37;;;;;;;1.75;1.10;;;7.40;99.90;;;;;;5081339;28;20119;-70
2021/10/26 02:27:03;;;;;;;0.93;0.75;;;7.40;99.90;;;;;;5077464;28;20027;-70
2021/10/26 02:29:28;;;;;;;4.72;1.45;;;7.30;99.90;;;;;;5084058;28;20038;-70
2021/10/26 02:31:55;;;;;;;0.95;0.82;;;7.30;99.90;;;;;;5087918;28;20028;-70
2021/10/26 02:34:21;;;;;;;1.20;1.10;;;7.20;99.90;;;;;;5078493;28;20028;-70
2021/10/26 02:36:47;;;;;;;0.45;0.45;;;7.20;99.90;;;;;;5074833;28;20119;-70
2021/10/26 02:39:13;;;;;;;1.23;0.63;;;7.20;99.90;;;;;;5075642;28;20112;-70
2021/10/26 02:41:39;;;;;;;0.20;0.20;;;7.10;99.90;;;;;;5086849;28;20439;-70
2021/10/26 02:44:05;;;;;;;0.82;0.82;;;7.10;99.90;;;;;;5083571;28;20028;-70
2021/10/26 02:46:31;;;;;;;0.50;0.50;;;7.10;99.90;;;;;;5078211;28;20039;-70
2021/10/26 02:48:57;;;;;;;0.73;0.57;;;7.00;99.90;;;;;;5081505;28;20032;-71
2021/10/26 02:51:22;;;;;;;0.25;0.25;;;7.00;99.90;;;;;;5080307;28;20039;-70
2021/10/26 02:53:48;;;;;;;0.35;0.35;;;6.90;99.90;;;;;;5083866;28;20097;-70
2021/10/26 02:56:14;;;;;;;0.20;0.20;;;6.90;99.90;;;;;;5070898;28;20437;-70
2021/10/26 02:58:39;;;;;;;0.75;0.60;;;6.90;99.90;;;;;;5078892;28;20111;-70
2021/10/26 03:01:05;;;;;;;0.52;0.52;;;6.80;99.90;;;;;;5086799;28;20168;-70
2021/10/26 03:03:30;;;;;;;1.10;1.00;;;6.80;99.90;;;;;;5081688;28;20024;-70
2021/10/26 03:05:56;;;;;;;0.60;0.60;;;6.80;99.90;;;;;;5076578;28;20036;-71
2021/10/26 03:08:22;;;;;;;0.90;0.80;;;6.70;99.90;;;;;;5084741;28;20474;-70
2021/10/26 03:10:48;;;;;;;0.38;0.38;;;6.70;99.90;;;;;;5077766;28;20036;-71
2021/10/26 03:13:13;;;;;;;0.80;0.80;;;6.70;99.90;;;;;;5088277;28;20050;-71
2021/10/26 03:15:39;;;;;;;0.20;0.20;;;6.80;99.90;;;;;;5087180;28;20287;-70
2021/10/26 03:18:04;;;;;;;1.35;1.20;;;6.80;99.90;;;;;;5081348;28;20044;-70
2021/10/26 03:20:30;;;;;;;0.80;0.70;;;6.80;99.90;;;;;;5078567;28;20024;-71
2021/10/26 03:22:56;;;;;;;0.50;0.50;;;6.80;99.90;;;;;;5086711;28;20016;-70
2021/10/26 03:25:22;;;;;;;1.20;1.10;;;6.80;99.90;;;;;;5083370;28;20407;-70
2021/10/26 03:27:48;;;;;;;0.32;0.32;;;6.80;99.90;;;;;;5082030;28;20028;-70
2021/10/26 03:30:14;;;;;;;0.82;0.82;;;6.80;99.90;;;;;;5080216;28;20051;-70
2021/10/26 03:32:40;;;;;;;1.17;0.68;;;6.90;99.90;;;;;;5086604;28;20039;-70
2021/10/26 03:35:06;;;;;;;0.50;0.50;;;6.90;99.90;;;;;;5077403;28;20399;-71
2021/10/26 03:37:36;;;;;;;0.20;0.20;;;7.00;99.90;;;;;;5087122;28;20016;-70
2021/10/26 03:40:03;;;;;;;2.28;1.15;;;7.00;99.90;;;;;;5081840;28;20165;-71
2021/10/26 03:42:28;;;;;;;0.60;0.60;;;7.10;99.90;;;;;;5075617;28;20082;-70
2021/10/26 03:44:54;;;;;;;0.30;0.30;;;7.10;99.90;;;;;;5085507;28;20136;-69
2021/10/26 03:47:20;;;;;;;0.70;0.70;;;7.10;99.90;;;;;;5076575;28;20031;-70
2021/10/26 03:49:45;;;;;;;0.52;0.52;;;7.20;99.90;;;;;;5076127;28;20035;-71
2021/10/26 03:52:11;;;;;;;0.30;0.30;;;7.20;99.90;;;;;;5082055;28;20034;-70
2021/10/26 03:54:38;;;;;;;0.40;0.40;;;7.20;99.90;;;;;;5085146;28;20506;-70
2021/10/26 03:57:08;;;;;;;0.43;0.43;;;7.30;99.90;;;;;;5079728;28;20073;-71
2021/10/26 03:59:34;;;;;;;0.30;0.30;;;7.30;99.90;;;;;;5085735;28;20031;-70
2021/10/26 04:02:05;;;;;;;0.28;0.28;;;7.30;99.90;;;;;;5074666;28;20376;-71
2021/10/26 04:04:30;;;;;;;4.07;1.10;;;7.30;99.90;;;;;;5080072;28;20028;-70
2021/10/26 04:06:55;;;;;;;0.50;0.50;;;7.40;99.90;;;;;;5084838;28;20086;-71
2021/10/26 04:09:30;;;;;;;1.80;1.25;;;7.40;99.90;;;;;;5082949;28;20397;-71
2021/10/26 04:12:16;;;;;;;0.30;0.30;;;7.40;99.90;;;;;;5085697;28;20020;-75
2021/10/26 04:14:42;;;;;;;0.45;0.45;;;7.50;99.90;;;;;;5083591;28;20414;-74
2021/10/26 04:17:10;;;;;;;0.50;0.50;;;7.60;99.90;;;;;;5084006;28;20110;-74
2021/10/26 04:19:35;;;;;;;2.45;2.25;;;7.60;99.90;;;;;;5085462;28;20024;-75
2021/10/26 04:22:01;;;;;;;1.98;1.00;;;7.70;99.90;;;;;;5073038;28;20024;-74
2021/10/26 04:24:29;;;;;;;0.82;0.50;;;7.80;99.90;;;;;;5086431;28;20079;-74
2021/10/26 04:26:55;;;;;;;15.20;1.17;;;7.80;99.90;;;;;;5085693;28;20031;-78
2021/10/26 04:29:20;;;;;;;0.60;0.60;;;7.90;99.90;;;;;;5087128;28;20020;-74
2021/10/26 04:31:46;;;;;;;0.10;0.10;;;7.90;99.90;;;;;;5083013;28;20040;-74
2021/10/26 04:34:11;;;;;;;0.35;0.35;;;8.00;99.90;;;;;;5084670;28;20087;-78
2021/10/26 04:36:37;;;;;;;0.30;0.30;;;8.00;99.90;;;;;;5082681;28;20425;-75
2021/10/26 04:39:04;;;;;;;3.08;0.77;;;8.00;99.90;;;;;;5078981;28;20533;-75
2021/10/26 04:41:31;;;;;;;0.57;0.57;;;8.10;99.90;;;;;;5083867;28;20031;-71
2021/10/26 04:43:57;;;;;;;0.43;0.43;;;8.20;99.90;;;;;;5076086;28;20127;-71
2021/10/26 04:46:22;;;;;;;0.52;0.52;;;8.30;99.90;;;;;;5079489;28;20522;-72
2021/10/26 04:48:48;;;;;;;2.78;1.67;;;8.30;99.90;;;;;;5079206;28;20402;-71
2021/10/26 04:51:13;;;;;;;0.90;0.90;;;8.30;99.90;;;;;;5087496;28;20039;-71
2021/10/26 04:53:39;;;;;;;0.98;0.95;;;8.40;99.90;;;;;;5085875;28;20054;-73
2021/10/26 04:56:05;;;;;;;0.50;0.50;;;8.40;99.90;;;;;;5077963;28;20111;-72
2021/10/26 04:58:30;;;;;;;1.67;1.58;;;8.40;99.90;;;;;;5083053;28;20466;-72
2021/10/26 05:00:56;;;;;;;0.60;0.60;;;8.40;99.90;;;;;;5075475;28;20024;-72
2021/10/26 05:03:21;;;;;;;0.63;0.57;;;8.50;99.90;;;;;;5084166;28;20115;-70
2021/10/26 05:05:47;;;;;;;0.28;0.28;;;8.50;99.90;;;;;;5086129;28;20023;-75
2021/10/26 05:08:12;;;;;;;0.85;0.75;;;8.50;99.90;;;;;;5086433;28;20077;-73
2021/10/26 05:10:40;;;;;;;0.70;0.68;;;8.50;99.90;;;;;;5084400;28;20024;-73
2021/10/26 05:13:19;;;;;;;3.80;1.77;;;8.60;99.90;;;;;;5084677;28;20046;-72
2021/10/26 05:15:45;;;;;;;0.63;0.57;;;8.60;99.90;;;;;;5079169;28;20039;-73
2021/10/26 05:18:13;;;;;;;0.73;0.73;;;8.60;99.90;;;;;;5087815;28;20025;-73
2021/10/26 05:20:39;;;;;;;0.60;0.60;;;8.70;99.90;;;;;;5087192;28;20050;-73
2021/10/26 05:23:06;;;;;;;0.47;0.32;;;8.70;99.90;;;;;;5087134;28;20016;-73
2021/10/26 05:25:32;;;;;;;0.73;0.73;;;8.70;99.90;;;;;;5086122;28;20127;-74
2021/10/26 05:27:57;;;;;;;0.45;0.45;;;8.70;99.90;;;;;;5086752;28;20069;-72
2021/10/26 05:30:23;;;;;;;0.40;0.40;;;8.80;99.90;;;;;;5086642;28;20032;-73
2021/10/26 05:32:48;;;;;;;0.52;0.52;;;8.80;99.90;;;;;;5087480;28;20032;-73
2021/10/26 05:35:14;;;;;;;0.57;0.40;;;8.80;99.90;;;;;;5090898;28;20056;-73
2021/10/26 05:37:39;;;;;;;1.90;1.58;;;8.80;99.90;;;;;;5080576;28;20499;-73
2021/10/26 05:40:06;;;;;;;0.88;0.88;;;8.80;99.90;;;;;;5089783;28;20056;-73
2021/10/26 05:42:32;;;;;;;0.32;0.32;;;8.90;99.90;;;;;;5089885;28;20027;-73
2021/10/26 05:44:57;;;;;;;2.85;1.45;;;8.90;99.90;;;;;;5079671;28;20395;-73
2021/10/26 05:47:23;;;;;;;1.33;1.05;;;8.90;99.90;;;;;;5082783;28;20023;-73
2021/10/26 05:49:49;;;;;;;0.40;0.40;;;8.90;99.90;;;;;;5090701;28;20023;-72
2021/10/26 05:52:14;;;;;;;0.47;0.47;;;8.90;99.90;;;;;;5090412;28;20028;-73
2021/10/26 05:54:40;;;;;;;0.45;0.45;;;9.00;99.90;;;;;;5083082;28;20035;-73
2021/10/26 05:57:05;;;;;;;0.50;0.50;;;9.00;99.90;;;;;;5090541;28;20038;-72
2021/10/26 05:59:31;;;;;;;0.30;0.30;;;9.00;99.90;;;;;;5090039;28;20031;-73
2021/10/26 06:01:57;;;;;;;0.63;0.50;;;9.00;99.90;;;;;;5090065;28;20024;-73
2021/10/26 06:04:24;;;;;;;0.75;0.75;;;9.00;99.90;;;;;;5084863;28;20066;-73
2021/10/26 06:06:49;;;;;;;0.73;0.73;;;9.00;99.90;;;;;;5084787;28;20385;-73
2021/10/26 06:09:17;;;;;;;0.68;0.68;;;9.00;99.90;;;;;;5089951;28;20027;-73
2021/10/26 06:11:46;;;;;;;0.50;0.50;;;9.00;99.90;;;;;;5089714;28;20020;-73
2021/10/26 06:14:12;;;;;;;0.45;0.45;;;9.00;99.90;;;;;;5088573;28;20119;-73
2021/10/26 06:16:39;;;;;;;1.90;1.75;;;9.10;99.90;;;;;;5089776;28;20116;-73
2021/10/26 06:19:05;;;;;;;1.67;1.23;;;9.10;99.90;;;;;;5089636;28;20077;-72
2021/10/26 06:21:31;;;;;;;1.08;0.85;;;9.20;99.90;;;;;;5089806;28;20214;-73
2021/10/26 06:23:57;;;;;;;0.93;0.82;;;9.20;99.90;;;;;;5090258;28;20028;-71
2021/10/26 06:26:23;;;;;;;0.30;0.30;;;9.30;99.90;;;;;;5088029;28;20111;-73
2021/10/26 06:28:49;;;;;;;0.40;0.40;;;9.30;99.90;;;;;;5089498;28;20017;-72
2021/10/26 06:31:15;;;;;;;0.20;0.20;;;9.30;99.90;;;;;;5089706;28;20027;-73
2021/10/26 06:33:41;;;;;;;1.23;1.13;;;9.40;99.90;;;;;;5089365;28;20024;-73
2021/10/26 06:36:06;;;;;;;0.43;0.30;;;9.40;99.90;;;;;;5081003;28;20541;-72
2021/10/26 06:38:32;;;;;;;2.13;1.95;;;9.40;99.90;;;;;;5088762;28;20039;-73
2021/10/26 06:40:57;;;;;;;1.55;1.45;;;9.50;99.90;;;;;;5086549;28;20050;-72
2021/10/26 06:43:23;;;;;;;0.90;0.73;;;9.50;99.90;;;;;;5089048;28;20020;-73
2021/10/26 06:45:49;;;;;;;0.68;0.65;;;9.50;99.90;;;;;;5089188;28;20470;-73
2021/10/26 06:48:15;;;;;;;0.70;0.70;;;9.60;99.90;;;;;;5082184;28;20024;-73
2021/10/26 06:50:41;;;;;;;0.80;0.80;;;9.60;99.90;;;;;;5081577;28;20138;-73
2021/10/26 06:53:06;;;;;;;0.50;0.50;;;9.70;99.90;;;;;;5087819;28;20107;-72
2021/10/26 06:55:32;;;;;;;0.70;0.70;;;9.70;99.90;;;;;;5076263;28;20577;-72
2021/10/26 06:57:58;;;;;;;0.20;0.20;;;9.70;99.90;;;;;;5087087;28;20031;-73
2021/10/26 07:00:24;;;;;;;4.30;1.15;;;9.80;99.90;;;;;;5089172;28;20110;-74
2021/10/26 07:02:52;;;;;;;1.90;0.85;;;9.80;99.90;;;;;;5086768;28;20028;-73
2021/10/26 07:05:23;;;;;;;0.63;0.63;;;9.90;99.90;;;;;;5088985;28;20032;-73
2021/10/26 07:07:49;;;;;;;0.50;0.50;;;9.90;99.90;;;;;;5088768;28;20016;-73
2021/10/26 07:10:16;;;;;;;0.73;0.73;;;10.00;99.90;;;;;;5089255;28;20028;-73
2021/10/26 07:12:42;;;;;;;0.55;0.55;;;10.00;99.90;;;;;;5085990;28;20042;-73
2021/10/26 07:15:09;;;;;;;0.80;0.80;;;10.10;99.90;;;;;;5082998;28;20023;-73
2021/10/26 07:17:36;;;;;;;4.03;1.10;;;10.20;99.90;;;;;;5088760;28;20031;-73
2021/10/26 07:20:04;;;;;;;2.55;1.30;;;10.20;99.90;;;;;;5088969;28;20039;-73
2021/10/26 07:22:30;;;;;;;0.63;0.63;;;10.20;99.90;;;;;;5088072;28;20023;-73
2021/10/26 07:24:58;;;;;;;1.02;0.93;;;10.30;99.90;;;;;;5078331;28;20044;-72
2021/10/26 07:27:24;;;;;;;0.35;0.35;;;10.30;99.90;;;;;;5088586;28;20129;-72
2021/10/26 07:29:50;;;;;;;0.25;0.25;;;10.40;99.90;;;;;;5088703;28;20024;-73
2021/10/26 07:32:17;;;;;;;1.27;1.13;;;10.40;99.90;;;;;;5088072;28;20028;-73
2021/10/26 07:34:42;;;;;;;0.90;0.40;;;10.50;99.90;;;;;;5081943;28;20063;-74
2021/10/26 07:37:08;;;;;;;1.38;1.27;;;10.50;99.90;;;;;;5088922;28;20051;-72
2021/10/26 07:39:36;;;;;;;1.10;0.70;;;10.60;99.90;;;;;;5088179;28;20427;-73
2021/10/26 07:42:02;;;;;;;1.60;1.17;;;10.70;99.90;;;;;;5087256;28;20705;-73
2021/10/26 07:44:32;;;;;;;2.08;1.35;;;10.80;99.90;;;;;;5088360;28;20016;-72
2021/10/26 07:46:59;;;;;;;0.20;0.20;;;10.80;99.90;;;;;;5088540;28;20078;-73
2021/10/26 07:49:29;;;;;;;1.98;1.85;;;10.90;99.90;;;;;;5088107;28;20042;-73
2021/10/26 07:51:55;;;;;;;2.50;1.67;;;10.90;99.90;;;;;;5086871;28;20101;-73
2021/10/26 07:54:21;;;;;;;0.73;0.73;;;10.90;99.90;;;;;;5085546;28;20216;-73
2021/10/26 07:56:47;;;;;;;1.10;0.70;;;11.00;99.90;;;;;;5087751;28;20032;-73
2021/10/26 07:59:12;;;;;;;1.00;0.90;;;11.10;99.90;;;;;;5087640;28;20027;-74
2021/10/26 08:01:38;;;;;;;0.50;0.50;;;11.10;99.90;;;;;;5087701;28;20032;-73
2021/10/26 08:04:07;;;;;;;2.08;1.40;;;11.20;99.90;;;;;;5079222;28;20024;-72
2021/10/26 08:06:32;;;;;;;1.65;1.45;;;11.20;99.90;;;;;;5088184;28;20024;-73
2021/10/26 08:08:58;;;;;;;0.85;0.85;;;11.20;99.90;;;;;;5087377;28;20030;-73
2021/10/26 08:11:27;;;;;;;3.00;1.25;;;11.20;99.90;;;;;;5086709;28;20036;-73
2021/10/26 08:13:53;;;;;;;1.13;1.05;;;11.30;99.90;;;;;;5088018;28;20047;-73
2021/10/26 08:16:18;;;;;;;2.72;1.00;;;11.30;99.90;;;;;;5087891;28;20020;-73
2021/10/26 08:18:44;;;;;;;1.27;1.17;;;11.30;99.90;;;;;;5087335;28;20751;-73
2021/10/26 08:21:12;;;;;;;0.63;0.57;;;11.40;99.90;;;;;;5085874;28;20037;-73
2021/10/26 08:23:40;;;;;;;0.75;0.65;;;11.40;99.90;;;;;;5086851;28;20478;-74
2021/10/26 08:26:08;;;;;;;2.67;1.38;;;11.50;99.90;;;;;;5087538;28;20503;-73
2021/10/26 08:28:34;;;;;;;1.70;1.48;;;11.60;99.90;;;;;;5087448;28;20020;-73
2021/10/26 08:31:05;;;;;;;0.55;0.55;;;11.60;99.90;;;;;;5087543;28;20034;-73
2021/10/26 08:35:56;;;;;;;0.30;0.30;;;11.70;99.90;;;;;;5087367;28;20477;-73
2021/10/26 08:38:22;;;;;;;0.57;0.57;;;11.70;99.90;;;;;;5087367;28;20372;-73
2021/10/26 08:40:48;;;;;;;0.68;0.68;;;11.70;99.90;;;;;;5087356;28;20032;-73
2021/10/26 08:43:18;;;;;;;1.83;1.25;;;11.60;99.90;;;;;;5087638;28;20016;-73
2021/10/26 08:45:48;;;;;;;0.40;0.40;;;11.70;99.90;;;;;;5083496;28;20027;-73
2021/10/26 08:48:20;;;;;;;0.60;0.60;;;11.70;99.90;;;;;;5087259;28;20269;-73
2021/10/26 08:50:52;;;;;;;0.60;0.60;;;11.70;99.90;;;;;;5087039;28;20031;-73
2021/10/26 08:53:18;;;;;;;0.75;0.75;;;11.70;99.90;;;;;;5087686;28;20024;-73
2021/10/26 08:55:55;;;;;;;1.13;1.02;;;11.70;99.90;;;;;;5086864;28;20031;-73
2021/10/26 08:58:21;;;;;;;10.18;1.70;;;11.70;99.90;;;;;;5075382;28;20032;-73
2021/10/26 09:00:47;;;;;;;8.20;2.13;;;11.80;99.90;;;;;;5081351;28;20043;-73
2021/10/26 09:03:20;;;;;;;2.00;1.90;;;11.70;99.90;;;;;;5087666;28;20058;-73
2021/10/26 09:05:47;;;;;;;1.15;1.05;;;11.70;99.90;;;;;;5087278;28;20028;-72
2021/10/26 09:08:13;;;;;;;0.70;0.57;;;11.80;99.90;;;;;;5088468;28;20074;-72
2021/10/26 09:10:39;;;;;;;0.68;0.68;;;11.80;99.90;;;;;;5090126;28;20072;-73
2021/10/26 09:18:53;;;;;;;0.77;0.77;;;12.00;99.90;;;;;;5087699;28;20451;-72
2021/10/26 09:21:26;;;;;;;2.20;1.20;;;12.10;99.90;;;;;;5091537;28;20386;-72
2021/10/26 09:23:57;;;;;;;2.08;1.98;;;12.10;99.90;;;;;;5076829;28;20114;-72
2021/10/26 09:26:42;;;;;;;1.33;0.32;;;12.20;99.90;;;;;;5091040;28;20051;-72
2021/10/26 09:29:08;;;;;;;12.50;1.40;;;12.30;99.90;;;;;;5079115;28;20434;-73
2021/10/26 09:31:36;;;;;;;1.75;0.85;;;12.30;99.90;;;;;;5090790;28;20063;-73
2021/10/26 09:34:05;;;;;;;0.70;0.63;;;12.40;99.90;;;;;;5082556;28;20024;-73
2021/10/26 09:36:38;;;;;;;2.13;1.00;;;12.50;99.90;;;;;;5089892;28;20077;-73
2021/10/26 09:39:04;;;;;;;0.70;0.70;;;12.50;99.90;;;;;;5091042;28;20114;-72
2021/10/26 09:41:34;;;;;;;0.38;0.38;;;12.60;99.90;;;;;;5090423;28;20542;-73
2021/10/26 09:44:17;;;;;;;0.75;0.75;;;12.70;99.90;;;;;;5090018;28;20533;-72
2021/10/26 09:46:57;;;;;;;0.60;0.60;;;12.70;99.90;;;;;;5089395;28;20155;-72
2021/10/26 09:49:24;;;;;;;1.13;1.02;;;12.70;99.90;;;;;;5090387;28;20161;-72
2021/10/26 09:51:51;;;;;;;1.75;1.17;;;12.80;99.90;;;;;;5090140;28;20020;-72
2021/10/26 09:54:19;;;;;;;0.57;0.47;;;12.80;99.90;;;;;;5089614;28;20032;-72
2021/10/26 09:57:05;;;;;;;0.73;0.73;;;12.80;99.90;;;;;;5083890;28;20476;-72
2021/10/26 09:59:30;;;;;;;0.20;0.20;;;12.90;99.90;;;;;;5090176;28;20027;-72
2021/10/26 10:01:56;;;;;;;0.63;0.35;;;13.00;99.90;;;;;;5090055;28;20028;-73
2021/10/26 10:04:26;;;;;;;1.13;1.02;;;13.10;99.90;;;;;;5080048;28;20525;-72
2021/10/26 10:06:52;;;;;;;4.75;0.77;;;13.20;99.90;;;;;;5089994;28;20055;-73
2021/10/26 10:09:25;;;;;;;0.95;0.73;;;13.30;99.90;;;;;;5090022;28;20024;-72
2021/10/26 10:12:07;;;;;;;0.68;0.68;;;13.40;99.90;;;;;;5089748;28;20161;-73
2021/10/26 10:14:34;;;;;;;3.42;1.02;;;13.40;99.90;;;;;;5089728;28;20387;-72
2021/10/26 10:17:02;;;;;;;0.82;0.82;;;13.50;99.90;;;;;;5089846;28;20035;-73
2021/10/26 10:19:29;;;;;;;0.60;0.60;;;13.60;99.90;;;;;;5089425;28;20066;-72
2021/10/26 10:21:56;;;;;;;0.45;0.45;;;13.70;99.90;;;;;;5088938;28;20600;-72
2021/10/26 10:24:22;;;;;;;1.40;1.15;;;13.70;99.90;;;;;;5089979;28;20245;-73
2021/10/26 10:26:50;;;;;;;0.52;0.52;;;13.80;99.90;;;;;;5089407;28;20031;-73
2021/10/26 10:29:17;;;;;;;0.68;0.68;;;13.80;99.90;;;;;;5089849;28;20024;-73
2021/10/26 10:31:44;;;;;;;0.80;0.80;;;13.90;99.90;;;;;;5088427;28;20103;-73
2021/10/26 10:34:10;;;;;;;1.60;1.50;;;13.90;99.90;;;;;;5089121;28;20043;-72
2021/10/26 10:36:40;;;;;;;2.97;0.93;;;13.90;99.90;;;;;;5089505;28;20028;-72
2021/10/26 10:39:07;;;;;;;2.40;1.15;;;13.80;99.90;;;;;;5089233;28;20024;-72
2021/10/26 10:41:37;;;;;;;1.20;1.13;;;13.80;99.90;;;;;;5089270;28;20031;-72
2021/10/26 10:44:23;;;;;;;0.10;0.10;;;13.80;99.90;;;;;;5086942;28;20020;-70
2021/10/26 10:46:53;;;;;;;1.58;1.38;;;13.70;99.90;;;;;;5078098;28;20107;-72
2021/10/26 10:49:19;;;;;;;1.55;0.85;;;13.80;99.90;;;;;;5089698;28;20031;-72
2021/10/26 10:52:04;;;;;;;2.78;1.30;;;13.80;99.90;;;;;;5089487;28;20024;-72
2021/10/26 10:54:44;;;;;;;0.73;0.73;;;13.70;99.90;;;;;;5089594;28;20042;-71
2021/10/26 10:57:37;;;;;;;0.40;0.40;;;13.70;99.90;;;;;;5080558;28;20029;-71
2021/10/26 11:00:21;;;;;;;1.95;1.10;;;13.80;99.90;;;;;;5073756;28;20028;-71
2021/10/26 11:02:49;;;;;;;2.17;1.33;;;13.80;99.90;;;;;;5089144;28;20236;-72
2021/10/26 11:05:33;;;;;;;0.57;0.32;;;13.90;99.90;;;;;;5089710;28;20106;-72
2021/10/26 11:08:03;;;;;;;2.33;1.35;;;13.90;99.90;;;;;;5089279;28;20020;-72
2021/10/26 11:10:51;;;;;;;1.85;1.75;;;13.90;99.90;;;;;;5078291;28;20506;-72
2021/10/26 11:13:22;;;;;;;3.85;1.63;;;14.00;99.90;;;;;;5089264;28;20388;-71
2021/10/26 11:15:50;;;;;;;0.88;0.77;;;14.00;99.90;;;;;;5088923;28;20427;-71
2021/10/26 11:18:36;;;;;;;0.98;0.90;;;14.00;99.90;;;;;;5082796;28;20037;-71
2021/10/26 11:21:06;;;;;;;2.28;1.67;;;14.00;99.90;;;;;;5086345;28;20032;-71
2021/10/26 11:23:41;;;;;;;0.40;0.40;;;14.00;99.90;;;;;;5089590;28;20031;-72
2021/10/26 11:26:11;;;;;;;1.63;0.98;;;13.90;99.90;;;;;;5088078;28;20488;-72
2021/10/26 11:28:46;;;;;;;1.67;1.40;;;13.90;99.90;;;;;;5088472;28;20043;-71
2021/10/26 11:31:13;;;;;;;1.15;1.00;;;14.00;99.90;;;;;;5088035;28;20024;-71
2021/10/26 11:33:49;;;;;;;1.70;1.48;;;14.00;99.90;;;;;;5088765;28;20024;-72
2021/10/26 11:36:16;;;;;;;1.10;0.82;;;14.10;99.90;;;;;;5088335;28;20059;-71
2021/10/26 11:38:48;;;;;;;2.53;1.85;;;14.10;99.90;;;;;;5084680;28;20032;-71
2021/10/26 11:41:38;;;;;;;1.85;1.23;;;14.20;99.90;;;;;;5088248;28;20035;-70
2021/10/26 11:44:06;;;;;;;1.27;1.17;;;14.30;99.90;;;;;;5085838;28;20027;-71
2021/10/26 11:46:36;;;;;;;13.10;1.52;;;14.50;99.90;;;;;;5087597;28;20111;-72
2021/10/26 11:49:09;;;;;;;15.60;2.30;;;14.60;99.90;;;;;;5088495;28;20056;-72
2021/10/26 11:51:37;;;;;;;1.55;1.33;;;14.70;99.90;;;;;;5088090;28;20038;-72
2021/10/26 11:54:18;;;;;;;0.88;0.88;;;14.70;99.90;;;;;;5086695;28;20031;-72
2021/10/26 11:56:58;;;;;;;1.75;1.27;;;14.70;99.90;;;;;;5088593;28;20051;-72
2021/10/26 11:59:24;;;;;;;1.00;0.65;;;14.60;99.90;;;;;;5088681;28;20074;-72
2021/10/26 12:01:54;;;;;;;1.45;1.17;;;14.60;99.90;;;;;;5088026;28;20039;-72
2021/10/26 12:04:30;;;;;;;0.90;0.85;;;14.50;99.90;;;;;;5087245;28;20016;-71
2021/10/26 12:07:00;;;;;;;1.10;1.00;;;14.40;99.90;;;;;;5088216;28;20020;-72
2021/10/26 12:09:28;;;;;;;2.20;1.90;;;14.30;99.90;;;;;;5088221;28;20039;-72
2021/10/26 12:11:56;;;;;;;1.23;1.10;;;14.30;99.90;;;;;;5087704;28;20024;-71
2021/10/26 12:14:26;;;;;;;0.63;0.63;;;14.20;99.90;;;;;;5086810;28;20043;-72
2021/10/26 12:17:11;;;;;;;2.53;0.98;;;14.20;99.90;;;;;;5083006;28;20055;-72
2021/10/26 12:19:45;;;;;;;1.65;1.25;;;14.10;99.90;;;;;;5088914;28;20073;-72
2021/10/26 12:22:26;;;;;;;2.63;1.45;;;14.10;99.90;;;;;;5088085;28;20520;-72
2021/10/26 12:25:27;;;;;;;0.63;0.63;;;14.00;99.90;;;;;;5085153;28;20090;-71
2021/10/26 12:28:00;;;;;;;1.33;1.23;;;14.00;99.90;;;;;;5075901;28;20279;-71
2021/10/26 12:30:39;;;;;;;1.88;1.25;;;14.10;99.90;;;;;;5074698;28;20025;-72
2021/10/26 12:33:24;;;;;;;0.70;0.63;;;14.20;99.90;;;;;;5081721;28;20035;-69
2021/10/26 12:35:55;;;;;;;0.70;0.70;;;14.30;99.90;;;;;;5075149;28;20056;-69
2021/10/26 12:38:35;;;;;;;0.38;0.38;;;14.30;99.90;;;;;;5074770;28;20024;-70
2021/10/26 12:41:14;;;;;;;0.47;0.47;;;14.30;99.90;;;;;;5078108;28;20031;-71
2021/10/26 12:43:45;;;;;;;1.60;0.60;;;14.40;99.90;;;;;;5075002;28;20028;-69
2021/10/26 12:46:16;;;;;;;1.50;1.23;;;14.40;99.90;;;;;;5087692;28;20032;-69
2021/10/26 12:48:42;;;;;;;2.00;1.60;;;14.40;99.90;;;;;;5074306;28;20032;-68
2021/10/26 12:51:09;;;;;;;2.25;2.05;;;14.40;99.90;;;;;;5091173;28;20523;-68
2021/10/26 12:53:42;;;;;;;0.13;0.13;;;14.40;99.90;;;;;;5083438;28;20082;-69
2021/10/26 12:56:27;;;;;;;1.80;1.27;;;14.40;99.90;;;;;;5076894;28;20032;-68
2021/10/26 12:58:54;;;;;;;0.95;0.95;;;14.40;99.90;;;;;;5078094;28;20038;-70
2021/10/26 13:01:25;;;;;;;0.70;0.70;;;14.40;99.90;;;;;;5083105;28;20113;-70
2021/10/26 13:03:57;;;;;;;4.00;1.83;;;14.50;99.90;;;;;;5078916;28;20045;-70
2021/10/26 13:06:37;;;;;;;2.47;0.98;;;14.70;99.90;;;;;;5079410;28;20027;-71